Time;durP1;ratioP1;P1;durP2;ratioP2;P2;SDS_P1;SDS_P2;PMS_P1;PMS_P2;Temp;Humidity;BMP_temperature;BMP_pressure;BME280_temperature;BME280_humidity;BME280_pressure;Samples;Min_cycle;Max_cycle;Signal;HPM_P1;HPM_P2
2023/06/17 00:00:41;;;;;;;0.95;0.30;;;;;;;-146.25;100.00;57403.91;5038757;28;20584;-81
2023/06/17 00:04:06;;;;;;;0.32;0.32;;;;;;;-146.25;100.00;57403.91;5039790;28;20230;-83
2023/06/17 00:07:32;;;;;;;0.63;0.63;;;;;;;-146.25;100.00;57403.91;5038269;28;20364;-83
2023/06/17 00:10:57;;;;;;;0.22;0.22;;;;;;;-146.25;100.00;57403.91;5040528;28;20208;-82
2023/06/17 00:14:22;;;;;;;0.40;0.40;;;;;;;-146.25;100.00;57403.91;5033278;28;20217;-82
2023/06/17 00:17:50;;;;;;;0.30;0.30;;;;;;;-146.25;100.00;57403.91;5043121;28;20241;-81
2023/06/17 00:21:15;;;;;;;0.47;0.47;;;;;;;-146.25;100.00;57403.91;5041727;28;20504;-82
2023/06/17 00:24:41;;;;;;;0.22;0.22;;;;;;;-146.25;100.00;57403.91;5035120;28;20229;-83
2023/06/17 00:28:06;;;;;;;0.40;0.40;;;;;;;-146.25;100.00;57403.91;5039840;28;20206;-83
2023/06/17 00:31:32;;;;;;;4.15;0.30;;;;;;;-146.25;100.00;57403.91;5032675;28;20280;-84
2023/06/17 00:35:00;;;;;;;0.32;0.32;;;;;;;-146.25;100.00;57403.91;5035349;28;20970;-82
2023/06/17 00:38:25;;;;;;;0.30;0.30;;;;;;;-146.25;100.00;57403.91;5039530;28;20224;-81
2023/06/17 00:41:50;;;;;;;0.20;0.20;;;;;;;-146.25;100.00;57403.91;5047481;28;20238;-83
2023/06/17 00:45:16;;;;;;;0.28;0.28;;;;;;;-146.25;100.00;57403.91;5038883;28;20646;-84
2023/06/17 00:48:41;;;;;;;0.30;0.30;;;;;;;-146.25;100.00;57403.91;5036127;28;20725;-82
2023/06/17 00:52:09;;;;;;;0.30;0.30;;;;;;;-146.25;100.00;57403.91;5035829;28;20196;-81
2023/06/17 00:55:36;;;;;;;0.40;0.40;;;;;;;-146.25;100.00;57403.91;5041098;28;20258;-82
2023/06/17 00:59:02;;;;;;;0.60;0.60;;;;;;;-146.25;100.00;57403.91;5033000;28;20212;-83
2023/06/17 01:02:28;;;;;;;0.40;0.40;;;;;;;-146.25;100.00;57403.91;5038595;28;20588;-80
2023/06/17 01:05:56;;;;;;;0.20;0.20;;;;;;;-146.25;100.00;57403.91;5036549;28;20610;-82
2023/06/17 01:09:30;;;;;;;0.50;0.50;;;;;;;-146.25;100.00;57403.91;5034434;28;20734;-82
2023/06/17 01:12:56;;;;;;;0.32;0.32;;;;;;;-146.25;100.00;57403.91;5037699;28;20284;-82
2023/06/17 01:16:23;;;;;;;0.60;0.40;;;;;;;-146.25;100.00;57403.91;5032292;28;20197;-83
2023/06/17 01:19:49;;;;;;;0.32;0.32;;;;;;;-146.25;100.00;57403.91;5031370;28;20207;-81
2023/06/17 01:23:16;;;;;;;0.40;0.40;;;;;;;-146.25;100.00;57403.91;5032913;28;20199;-81
2023/06/17 01:26:44;;;;;;;0.55;0.52;;;;;;;-146.25;100.00;57403.91;5044257;28;20203;-82
2023/06/17 01:30:10;;;;;;;0.40;0.40;;;;;;;-146.25;100.00;57403.91;5035057;28;20207;-81
2023/06/17 01:33:36;;;;;;;0.43;0.43;;;;;;;-146.25;100.00;57403.91;5040924;28;20268;-80
2023/06/17 01:37:04;;;;;;;0.65;0.65;;;;;;;-146.25;100.00;57403.91;5038011;28;20198;-83
2023/06/17 01:40:33;;;;;;;0.50;0.50;;;;;;;-146.25;100.00;57403.91;5037602;28;20211;-83
2023/06/17 01:44:01;;;;;;;0.40;0.40;;;;;;;-146.25;100.00;57403.91;5035960;28;20292;-81
2023/06/17 01:47:27;;;;;;;0.50;0.50;;;;;;;-146.25;100.00;57403.91;5038334;28;20575;-82
2023/06/17 01:50:55;;;;;;;0.32;0.32;;;;;;;-146.25;100.00;57403.91;5037297;28;20288;-82
2023/06/17 01:54:21;;;;;;;0.55;0.55;;;;;;;-146.25;100.00;57403.91;5035394;28;20384;-81
2023/06/17 01:57:46;;;;;;;0.70;0.70;;;;;;;-146.25;100.00;57403.91;5041524;28;20203;-81
2023/06/17 02:01:14;;;;;;;0.40;0.40;;;;;;;-146.25;100.00;57403.91;5042464;28;20210;-79
2023/06/17 02:04:39;;;;;;;0.40;0.40;;;;;;;-146.25;100.00;57403.91;5040502;28;20208;-81
2023/06/17 02:08:05;;;;;;;0.40;0.40;;;;;;;-146.25;100.00;57403.91;5041136;28;20206;-81
2023/06/17 02:11:31;;;;;;;0.40;0.40;;;;;;;-146.25;100.00;57403.91;5040186;28;20212;-80
2023/06/17 02:14:56;;;;;;;3.40;0.80;;;;;;;-146.25;100.00;57403.91;5039649;28;20701;-80
2023/06/17 02:18:24;;;;;;;0.60;0.60;;;;;;;-146.25;100.00;57403.91;5037834;28;20233;-80
2023/06/17 02:21:49;;;;;;;0.70;0.70;;;;;;;-146.25;100.00;57403.91;5039757;28;20721;-80
2023/06/17 02:25:15;;;;;;;0.70;0.70;;;;;;;-146.25;100.00;57403.91;5040486;28;20240;-82
2023/06/17 02:28:42;;;;;;;1.52;0.80;;;;;;;-146.25;100.00;57403.91;5039400;28;20660;-81
2023/06/17 02:32:07;;;;;;;0.47;0.40;;;;;;;-146.25;100.00;57403.91;5049524;28;20207;-81
2023/06/17 02:35:35;;;;;;;0.70;0.70;;;;;;;-146.25;100.00;57403.91;5044258;28;20300;-80
2023/06/17 02:39:00;;;;;;;0.60;0.60;;;;;;;-146.25;100.00;57403.91;5035332;28;20219;-80
2023/06/17 02:42:25;;;;;;;0.68;0.68;;;;;;;-146.25;100.00;57403.91;5044673;28;20211;-81
2023/06/17 02:45:51;;;;;;;0.30;0.30;;;;;;;-146.25;100.00;57403.91;5047842;28;20710;-81
2023/06/17 02:49:17;;;;;;;0.50;0.50;;;;;;;-146.25;100.00;57403.91;5047785;28;20206;-81
2023/06/17 02:52:47;;;;;;;0.65;0.65;;;;;;;-146.25;100.00;57403.91;5048280;28;20651;-80
2023/06/17 02:56:12;;;;;;;0.47;0.47;;;;;;;-146.25;100.00;57403.91;5047124;28;20291;-81
2023/06/17 02:59:38;;;;;;;0.40;0.40;;;;;;;-146.25;100.00;57403.91;5047422;28;20266;-82
2023/06/17 03:03:04;;;;;;;3.10;0.50;;;;;;;-146.25;100.00;57403.91;5047356;28;20732;-82
2023/06/17 03:06:33;;;;;;;0.40;0.40;;;;;;;-146.25;100.00;57403.91;5047262;28;20230;-82
2023/06/17 03:10:00;;;;;;;0.60;0.60;;;;;;;-146.25;100.00;57403.91;5048108;28;20702;-82
2023/06/17 03:13:25;;;;;;;0.40;0.40;;;;;;;-146.25;100.00;57403.91;5052483;28;20234;-80
2023/06/17 03:16:51;;;;;;;0.32;0.32;;;;;;;-146.25;100.00;57403.91;5051452;28;20236;-83
2023/06/17 03:20:16;;;;;;;0.57;0.57;;;;;;;-146.25;100.00;57403.91;5049966;28;20490;-84
2023/06/17 03:23:42;;;;;;;0.50;0.50;;;;;;;-146.25;100.00;57403.91;5049988;28;20199;-83
2023/06/17 03:27:09;;;;;;;0.52;0.47;;;;;;;-146.25;100.00;57403.91;5049759;28;20337;-83
2023/06/17 03:30:34;;;;;;;0.65;0.65;;;;;;;-146.25;100.00;57403.91;5048993;28;20203;-83
2023/06/17 03:34:00;;;;;;;0.85;0.68;;;;;;;-146.25;100.00;57403.91;5049475;28;20591;-83
2023/06/17 03:37:26;;;;;;;0.70;0.70;;;;;;;-146.25;100.00;57403.91;5049652;28;20334;-82
2023/06/17 03:40:51;;;;;;;0.50;0.50;;;;;;;-146.25;100.00;57403.91;5049391;28;20207;-83
2023/06/17 03:44:18;;;;;;;0.38;0.38;;;;;;;-146.25;100.00;57403.91;5048331;28;20596;-82
2023/06/17 03:47:43;;;;;;;0.52;0.52;;;;;;;-146.25;100.00;57403.91;5048660;28;20308;-83
2023/06/17 03:51:30;;;;;;;1.77;1.67;;;;;;;-146.25;100.00;57403.91;5049264;28;20246;-83
2023/06/17 03:54:56;;;;;;;0.50;0.50;;;;;;;-146.25;100.00;57403.91;5049313;28;20202;-82
2023/06/17 03:58:26;;;;;;;0.60;0.60;;;;;;;-146.25;100.00;57403.91;5048895;28;20203;-82
2023/06/17 04:01:51;;;;;;;0.32;0.32;;;;;;;-146.25;100.00;57403.91;5049226;28;20198;-83
2023/06/17 04:05:17;;;;;;;0.80;0.80;;;;;;;-146.25;100.00;57403.91;5048843;28;20686;-82
2023/06/17 04:08:43;;;;;;;0.30;0.30;;;;;;;-146.25;100.00;57403.91;5047900;28;20272;-82
2023/06/17 04:12:09;;;;;;;0.63;0.63;;;;;;;-146.25;100.00;57403.91;5048539;28;20212;-83
2023/06/17 04:15:36;;;;;;;0.30;0.30;;;;;;;-146.25;100.00;57403.91;5049481;28;20234;-83
2023/06/17 04:19:02;;;;;;;0.30;0.30;;;;;;;-146.25;100.00;57403.91;5049219;28;20207;-83
2023/06/17 04:22:27;;;;;;;0.32;0.32;;;;;;;-146.25;100.00;57403.91;5048000;28;20712;-82
2023/06/17 04:25:53;;;;;;;0.50;0.50;;;;;;;-146.25;100.00;57403.91;5049280;28;20207;-82
2023/06/17 04:29:18;;;;;;;0.52;0.52;;;;;;;-146.25;100.00;57403.91;5048570;28;20278;-82
2023/06/17 04:32:46;;;;;;;0.20;0.20;;;;;;;-146.25;100.00;57403.91;5048258;28;20207;-83
2023/06/17 04:36:14;;;;;;;0.20;0.20;;;;;;;-146.25;100.00;57403.91;5048348;28;20202;-83
2023/06/17 04:39:39;;;;;;;0.20;0.20;;;;;;;-146.25;100.00;57403.91;5048411;28;20196;-82
2023/06/17 04:43:05;;;;;;;0.08;0.08;;;;;;;-146.25;100.00;57403.91;5048884;28;20201;-83
2023/06/17 04:46:31;;;;;;;0.17;0.17;;;;;;;-146.25;100.00;57403.91;5048783;28;20241;-81
2023/06/17 04:49:59;;;;;;;0.10;0.10;;;;;;;-146.25;100.00;57403.91;5052413;28;20308;-83
2023/06/17 04:53:24;;;;;;;0.30;0.30;;;;;;;-146.25;100.00;57403.91;5051461;28;20202;-81
2023/06/17 04:56:51;;;;;;;0.43;0.43;;;;;;;-146.25;100.00;57403.91;5050658;28;20435;-82
2023/06/17 05:00:17;;;;;;;1.92;0.40;;;;;;;-146.25;100.00;57403.91;5050536;28;20218;-81
2023/06/17 05:03:42;;;;;;;0.25;0.25;;;;;;;-146.25;100.00;57403.91;5052382;28;20293;-82
2023/06/17 05:07:09;;;;;;;0.20;0.20;;;;;;;-146.25;100.00;57403.91;5049774;28;20340;-80
2023/06/17 05:10:35;;;;;;;0.30;0.30;;;;;;;-146.25;100.00;57403.91;5052465;28;20201;-80
2023/06/17 05:14:01;;;;;;;0.30;0.30;;;;;;;-146.25;100.00;57403.91;5055611;28;20222;-81
2023/06/17 05:17:26;;;;;;;0.17;0.17;;;;;;;-146.25;100.00;57403.91;5056291;28;20234;-81
2023/06/17 05:20:51;;;;;;;0.15;0.15;;;;;;;-146.25;100.00;57403.91;5056351;28;20201;-80
2023/06/17 05:24:18;;;;;;;0.40;0.40;;;;;;;-146.25;100.00;57403.91;5053341;28;20864;-81
2023/06/17 05:27:44;;;;;;;0.20;0.20;;;;;;;-146.25;100.00;57403.91;5055343;28;20264;-82
2023/06/17 05:31:10;;;;;;;0.40;0.40;;;;;;;-146.25;100.00;57403.91;5052870;28;20204;-82
2023/06/17 05:34:36;;;;;;;0.43;0.43;;;;;;;-146.25;100.00;57403.91;5052852;28;20477;-82
2023/06/17 05:38:01;;;;;;;0.28;0.28;;;;;;;-146.25;100.00;57403.91;5052024;28;20260;-81
2023/06/17 05:41:28;;;;;;;0.30;0.30;;;;;;;-146.25;100.00;57403.91;5057780;28;20443;-81
2023/06/17 05:44:54;;;;;;;0.22;0.22;;;;;;;-146.25;100.00;57403.91;5052174;28;20210;-80
2023/06/17 05:48:19;;;;;;;0.30;0.30;;;;;;;-146.25;100.00;57403.91;5051405;28;20234;-81
2023/06/17 05:51:45;;;;;;;0.25;0.25;;;;;;;-146.25;100.00;57403.91;5051342;28;20218;-80
2023/06/17 05:55:10;;;;;;;0.38;0.38;;;;;;;-146.25;100.00;57403.91;5052331;28;20210;-80
2023/06/17 05:58:37;;;;;;;0.35;0.20;;;;;;;-146.25;100.00;57403.91;5051182;28;20604;-81
2023/06/17 06:02:03;;;;;;;1.95;0.22;;;;;;;-146.25;100.00;57403.91;5060294;28;20218;-80
2023/06/17 06:05:29;;;;;;;0.10;0.10;;;;;;;-146.25;100.00;57403.91;5050969;28;20281;-81
2023/06/17 06:08:55;;;;;;;0.52;0.20;;;;;;;-146.25;100.00;57403.91;5050725;28;20230;-82
2023/06/17 06:12:20;;;;;;;0.47;0.45;;;;;;;-146.25;100.00;57403.91;5050290;28;20795;-80
2023/06/17 06:15:48;;;;;;;0.10;0.10;;;;;;;-146.25;100.00;57403.91;5050759;28;20209;-82
2023/06/17 06:19:13;;;;;;;0.25;0.25;;;;;;;-146.25;100.00;57403.91;5051785;28;20336;-81
2023/06/17 06:22:39;;;;;;;0.13;0.13;;;;;;;-146.25;100.00;57403.91;5052381;28;20280;-81
2023/06/17 06:26:05;;;;;;;0.50;0.50;;;;;;;-146.25;100.00;57403.91;5050815;28;20654;-83
2023/06/17 06:29:31;;;;;;;1.65;0.40;;;;;;;-146.25;100.00;57403.91;5050648;28;20229;-83
2023/06/17 06:32:58;;;;;;;0.40;0.40;;;;;;;-146.25;100.00;57403.91;5052129;28;20197;-84
2023/06/17 06:36:24;;;;;;;0.30;0.30;;;;;;;-146.25;100.00;57403.91;5050425;28;20282;-85
2023/06/17 06:39:49;;;;;;;0.30;0.30;;;;;;;-146.25;100.00;57403.91;5051451;28;20210;-84
2023/06/17 06:43:15;;;;;;;0.50;0.50;;;;;;;-146.25;100.00;57403.91;5051148;28;20685;-86
2023/06/17 06:46:41;;;;;;;0.20;0.20;;;;;;;-146.25;100.00;57403.91;5051283;28;20195;-86
2023/06/17 06:50:11;;;;;;;0.40;0.40;;;;;;;-146.25;100.00;57403.91;5051453;28;20319;-86
2023/06/17 06:53:37;;;;;;;0.30;0.30;;;;;;;-146.25;100.00;57403.91;5056085;28;20260;-86
2023/06/17 06:57:02;;;;;;;0.30;0.30;;;;;;;-146.25;100.00;57403.91;5069649;28;20192;-84
2023/06/17 07:00:29;;;;;;;1.65;0.75;;;;;;;-146.25;100.00;57403.91;5050645;28;20203;-84
2023/06/17 07:03:54;;;;;;;0.47;0.40;;;;;;;-146.25;100.00;57403.91;5050125;28;20249;-83
2023/06/17 07:07:26;;;;;;;0.30;0.30;;;;;;;-146.25;100.00;57403.91;5050607;28;20256;-83
2023/06/17 07:10:55;;;;;;;0.20;0.20;;;;;;;-146.25;100.00;57403.91;5050869;28;20350;-84
2023/06/17 07:14:21;;;;;;;0.40;0.40;;;;;;;-146.25;100.00;57403.91;5050482;28;20264;-84
2023/06/17 07:17:50;;;;;;;0.20;0.20;;;;;;;-146.25;100.00;57403.91;5048294;28;20280;-83
2023/06/17 07:21:15;;;;;;;0.20;0.20;;;;;;;-146.25;100.00;57403.91;5048841;28;20733;-83
2023/06/17 07:24:42;;;;;;;0.30;0.30;;;;;;;-146.25;100.00;57403.91;5038610;28;20209;-84
2023/06/17 07:28:08;;;;;;;0.22;0.22;;;;;;;-146.25;100.00;57403.91;5033658;28;20686;-83
2023/06/17 07:31:33;;;;;;;0.30;0.30;;;;;;;-146.25;100.00;57403.91;5038040;28;20217;-83
2023/06/17 07:34:59;;;;;;;0.25;0.25;;;;;;;-146.25;100.00;57403.91;5029902;28;20652;-84
2023/06/17 07:38:25;;;;;;;2.33;0.57;;;;;;;-146.25;100.00;57403.91;5030259;28;20209;-83
2023/06/17 07:41:52;;;;;;;1.60;0.75;;;;;;;-146.25;100.00;57403.91;5030614;28;20231;-82
2023/06/17 07:45:17;;;;;;;8.02;5.78;;;;;;;-146.25;100.00;57403.91;5029561;28;20200;-83
2023/06/17 07:48:43;;;;;;;0.40;0.40;;;;;;;-146.25;100.00;57403.91;5029301;28;20281;-83
2023/06/17 07:52:20;;;;;;;1.42;0.68;;;;;;;-146.25;100.00;57403.91;5029151;28;20200;-82
2023/06/17 07:55:46;;;;;;;0.30;0.30;;;;;;;-146.25;100.00;57403.91;5029156;28;20212;-83
2023/06/17 07:59:13;;;;;;;0.30;0.30;;;;;;;-146.25;100.00;57403.91;5029370;28;20643;-83
2023/06/17 08:02:38;;;;;;;0.22;0.22;;;;;;;-146.25;100.00;57403.91;5030060;28;20204;-82
2023/06/17 08:06:04;;;;;;;0.30;0.30;;;;;;;-146.25;100.00;57403.91;5008531;28;20197;-84
2023/06/17 08:09:30;;;;;;;0.20;0.20;;;;;;;-146.25;100.00;57403.91;5010207;28;20244;-84
2023/06/17 08:12:55;;;;;;;0.30;0.30;;;;;;;-146.25;100.00;57403.91;5011172;28;20616;-84
2023/06/17 08:16:22;;;;;;;0.35;0.35;;;;;;;-146.25;100.00;57403.91;5009660;28;20201;-83
2023/06/17 08:19:50;;;;;;;0.80;0.80;;;;;;;-146.25;100.00;57403.91;5009627;28;20208;-83
2023/06/17 08:23:20;;;;;;;0.35;0.35;;;;;;;-146.25;100.00;57403.91;5009616;28;20201;-82
2023/06/17 08:26:46;;;;;;;0.40;0.40;;;;;;;-146.25;100.00;57403.91;5009140;28;20212;-83
2023/06/17 08:30:12;;;;;;;0.68;0.68;;;;;;;-146.25;100.00;57403.91;5009360;28;20228;-82
2023/06/17 08:33:39;;;;;;;3.83;0.47;;;;;;;-146.25;100.00;57403.91;5017780;28;20279;-83
2023/06/17 08:37:07;;;;;;;0.30;0.30;;;;;;;-146.25;100.00;57403.91;5029111;28;20235;-83
2023/06/17 08:40:32;;;;;;;0.13;0.13;;;;;;;-146.25;100.00;57403.91;5029054;28;20203;-82
2023/06/17 08:44:01;;;;;;;0.35;0.35;;;;;;;-146.25;100.00;57403.91;5029839;28;20623;-81
2023/06/17 08:47:27;;;;;;;1.10;1.10;;;;;;;-146.25;100.00;57403.91;5029359;28;20533;-82
2023/06/17 08:50:55;;;;;;;0.45;0.45;;;;;;;-146.25;100.00;57403.91;5028269;28;20236;-82
2023/06/17 08:54:22;;;;;;;0.52;0.52;;;;;;;-146.25;100.00;57403.91;5029535;28;20204;-83
2023/06/17 08:57:48;;;;;;;7.78;3.72;;;;;;;-146.25;100.00;57403.91;5028855;28;20200;-83
2023/06/17 09:01:14;;;;;;;1.45;1.35;;;;;;;-146.25;100.00;57403.91;5029384;28;20292;-82
2023/06/17 09:04:40;;;;;;;2.55;2.35;;;;;;;-146.25;100.00;57403.91;5028534;28;20688;-83
2023/06/17 09:08:07;;;;;;;0.98;0.98;;;;;;;-146.25;100.00;57403.91;5032808;28;20721;-84
2023/06/17 09:11:44;;;;;;;0.32;0.32;;;;;;;-146.25;100.00;57403.91;5032419;28;20295;-85
2023/06/17 09:15:16;;;;;;;0.63;0.60;;;;;;;-146.25;100.00;57403.91;5032471;28;20204;-85
2023/06/17 09:18:44;;;;;;;0.63;0.63;;;;;;;-146.25;100.00;57403.91;5032600;28;20269;-84
2023/06/17 09:22:17;;;;;;;1.95;1.10;;;;;;;-146.25;100.00;57403.91;5033732;28;20207;-82
2023/06/17 09:25:42;;;;;;;0.60;0.60;;;;;;;-146.25;100.00;57403.91;5032941;28;20215;-85
2023/06/17 09:29:11;;;;;;;0.70;0.60;;;;;;;-146.25;100.00;57403.91;5032607;28;20200;-86
2023/06/17 09:32:49;;;;;;;0.80;0.73;;;;;;;-146.25;100.00;57403.91;5032287;28;20265;-83
2023/06/17 09:36:15;;;;;;;0.57;0.57;;;;;;;-146.25;100.00;57403.91;5032953;28;20493;-85
2023/06/17 09:39:45;;;;;;;1.05;0.70;;;;;;;-146.25;100.00;57403.91;5032652;28;20200;-84
2023/06/17 09:43:12;;;;;;;0.65;0.65;;;;;;;-146.25;100.00;57403.91;5032355;28;20529;-84
2023/06/17 09:46:39;;;;;;;0.40;0.40;;;;;;;-146.25;100.00;57403.91;5032744;28;20224;-86
2023/06/17 09:50:11;;;;;;;0.47;0.47;;;;;;;-146.25;100.00;57403.91;5039386;28;20235;-86
2023/06/17 09:53:37;;;;;;;0.80;0.80;;;;;;;-146.25;100.00;57403.91;5053056;28;20300;-85
2023/06/17 09:57:05;;;;;;;0.47;0.47;;;;;;;-146.25;100.00;57403.91;5052324;28;20261;-85
2023/06/17 10:00:31;;;;;;;2.05;0.30;;;;;;;-146.25;100.00;57403.91;5051981;28;20277;-84
2023/06/17 10:03:58;;;;;;;0.30;0.30;;;;;;;-146.25;100.00;57403.91;5051637;28;20219;-85
2023/06/17 10:07:29;;;;;;;0.30;0.30;;;;;;;-146.25;100.00;57403.91;5052375;28;20650;-86
2023/06/17 10:10:59;;;;;;;0.40;0.40;;;;;;;-146.25;100.00;57403.91;5052371;28;20292;-85
2023/06/17 10:14:31;;;;;;;1.17;0.60;;;;;;;-146.25;100.00;57403.91;5052076;28;20191;-85
2023/06/17 10:17:57;;;;;;;0.60;0.60;;;;;;;-146.25;100.00;57403.91;5051635;28;20264;-86
2023/06/17 10:21:28;;;;;;;0.20;0.20;;;;;;;-146.25;100.00;57403.91;5052357;28;20197;-86
2023/06/17 10:24:56;;;;;;;0.32;0.32;;;;;;;-146.25;100.00;57403.91;5051497;28;20207;-85
2023/06/17 10:28:22;;;;;;;0.47;0.32;;;;;;;-146.25;100.00;57403.91;5056548;28;20241;-86
2023/06/17 10:31:50;;;;;;;0.10;0.10;;;;;;;-146.25;100.00;57403.91;5034834;28;20228;-85
2023/06/17 10:35:20;;;;;;;0.30;0.30;;;;;;;-146.25;100.00;57403.91;5054858;28;20252;-86
2023/06/17 10:38:53;;;;;;;0.50;0.50;;;;;;;-146.25;100.00;57403.91;5045529;28;20237;-84
2023/06/17 10:42:25;;;;;;;0.25;0.25;;;;;;;-146.25;100.00;57403.91;5041021;28;20207;-85
2023/06/17 10:45:53;;;;;;;0.40;0.40;;;;;;;-146.25;100.00;57403.91;5031449;28;20191;-85
2023/06/17 10:49:19;;;;;;;0.52;0.52;;;;;;;-146.25;100.00;57403.91;5030978;28;20211;-87
2023/06/17 10:52:46;;;;;;;1.15;1.15;;;;;;;-146.25;100.00;57403.91;5032579;28;20262;-86
2023/06/17 10:56:12;;;;;;;0.50;0.50;;;;;;;-146.25;100.00;57403.91;5032029;28;20195;-87
2023/06/17 10:59:44;;;;;;;2.10;0.52;;;;;;;-146.25;100.00;57403.91;5032690;28;20600;-87
2023/06/17 11:03:11;;;;;;;0.70;0.70;;;;;;;-146.25;100.00;57403.91;5032329;28;20557;-84
2023/06/17 11:06:37;;;;;;;0.82;0.82;;;;;;;-146.25;100.00;57403.91;5038755;28;20695;-84
2023/06/17 11:10:03;;;;;;;0.70;0.70;;;;;;;-146.25;100.00;57403.91;5052219;28;20212;-86
2023/06/17 11:13:29;;;;;;;0.57;0.57;;;;;;;-146.25;100.00;57403.91;5052941;28;21066;-86
2023/06/17 11:16:55;;;;;;;0.57;0.57;;;;;;;-146.25;100.00;57403.91;5057420;28;20208;-86
2023/06/17 11:20:22;;;;;;;0.40;0.40;;;;;;;-146.25;100.00;57403.91;5060982;28;20211;-86
2023/06/17 11:23:48;;;;;;;0.77;0.60;;;;;;;-146.25;100.00;57403.91;5044275;28;20219;-86
2023/06/17 11:27:14;;;;;;;0.50;0.50;;;;;;;-146.25;100.00;57403.91;5048387;28;20321;-86
2023/06/17 11:30:41;;;;;;;0.55;0.40;;;;;;;-146.25;100.00;57403.91;5030231;28;20238;-87
2023/06/17 11:34:08;;;;;;;0.52;0.52;;;;;;;-146.25;100.00;57403.91;5031544;28;20200;-86
2023/06/17 11:37:35;;;;;;;1.08;1.08;;;;;;;-146.25;100.00;57403.91;5031183;28;20258;-85
2023/06/17 11:41:02;;;;;;;0.90;0.90;;;;;;;-146.25;100.00;57403.91;5030300;28;20278;-86
2023/06/17 11:44:27;;;;;;;1.23;1.13;;;;;;;-146.25;100.00;57403.91;5030998;28;20726;-85
2023/06/17 11:47:53;;;;;;;0.80;0.80;;;;;;;-146.25;100.00;57403.91;5031377;28;20258;-86
2023/06/17 11:51:20;;;;;;;0.55;0.50;;;;;;;-146.25;100.00;57403.91;5030898;28;20301;-86
2023/06/17 11:54:48;;;;;;;0.50;0.50;;;;;;;-146.25;100.00;57403.91;5031685;28;20192;-87
2023/06/17 11:58:17;;;;;;;0.88;0.70;;;;;;;-146.25;100.00;57403.91;5035753;28;20230;-87
2023/06/17 12:01:42;;;;;;;0.88;0.88;;;;;;;-146.25;100.00;57403.91;5036560;28;20266;-87
2023/06/17 12:05:09;;;;;;;0.50;0.50;;;;;;;-146.25;100.00;57403.91;5067676;28;20234;-86
2023/06/17 12:08:38;;;;;;;2.28;0.70;;;;;;;-146.25;100.00;57403.91;5050318;28;20704;-86
2023/06/17 12:12:09;;;;;;;0.98;0.88;;;;;;;-146.25;100.00;57403.91;5040825;28;20249;-85
2023/06/17 12:15:37;;;;;;;0.45;0.45;;;;;;;-146.25;100.00;57403.91;5041901;28;20684;-86
2023/06/17 12:19:14;;;;;;;0.88;0.57;;;;;;;-146.25;100.00;57403.91;5042246;28;20231;-86
2023/06/17 12:22:40;;;;;;;0.98;0.98;;;;;;;-146.25;100.00;57403.91;5029320;28;20249;-86
2023/06/17 12:26:09;;;;;;;0.60;0.60;;;;;;;-146.25;100.00;57403.91;5029332;28;20204;-86
2023/06/17 12:29:34;;;;;;;0.70;0.70;;;;;;;-146.25;100.00;57403.91;5030438;28;20207;-86
2023/06/17 12:33:00;;;;;;;0.60;0.60;;;;;;;-146.25;100.00;57403.91;5030258;28;20232;-86
2023/06/17 12:36:26;;;;;;;0.90;0.90;;;;;;;-146.25;100.00;57403.91;5030707;28;20223;-87
2023/06/17 12:39:52;;;;;;;0.80;0.40;;;;;;;-146.25;100.00;57403.91;5030004;28;20204;-86
2023/06/17 12:42:32;;;;;;;0.70;0.70;;;;;;;-146.25;100.00;57403.91;5030574;28;20285;-86
2023/06/17 12:45:58;;;;;;;0.60;0.60;;;;;;;-146.25;100.00;57403.91;5030082;28;20642;-86
2023/06/17 12:48:55;;;;;;;0.65;0.65;;;;;;;-146.25;100.00;57403.91;5030517;28;20219;-86
2023/06/17 12:52:20;;;;;;;0.20;0.20;;;;;;;-146.25;100.00;57403.91;5049456;28;20246;-86
2023/06/17 12:55:56;;;;;;;0.40;0.40;;;;;;;-146.25;100.00;57403.91;5044578;28;20226;-84
2023/06/17 12:59:24;;;;;;;0.30;0.30;;;;;;;-146.25;100.00;57403.91;5036405;28;20246;-85
2023/06/17 13:02:49;;;;;;;0.30;0.30;;;;;;;-146.25;100.00;57403.91;5038545;28;20219;-86
2023/06/17 13:06:16;;;;;;;0.40;0.40;;;;;;;-146.25;100.00;57403.91;5041222;28;20286;-86
2023/06/17 13:09:41;;;;;;;0.30;0.30;;;;;;;-146.25;100.00;57403.91;5034667;28;20212;-86
2023/06/17 13:13:08;;;;;;;0.60;0.60;;;;;;;-146.25;100.00;57403.91;5035408;28;20224;-86
2023/06/17 13:16:46;;;;;;;3.70;3.00;;;;;;;-146.25;100.00;57403.91;5066282;28;20204;-84
2023/06/17 13:20:12;;;;;;;0.43;0.43;;;;;;;-146.25;100.00;57403.91;5039744;28;20545;-85
2023/06/17 13:23:39;;;;;;;0.50;0.50;;;;;;;-146.25;100.00;57403.91;5030494;28;20278;-85
2023/06/17 13:27:06;;;;;;;0.47;0.47;;;;;;;-146.25;100.00;57403.91;5033282;28;20223;-84
2023/06/17 13:30:31;;;;;;;0.93;0.73;;;;;;;-146.25;100.00;57403.91;5049065;28;20283;-87
2023/06/17 13:34:00;;;;;;;0.57;0.50;;;;;;;-146.25;100.00;57403.91;5042315;28;20212;-85
2023/06/17 13:37:32;;;;;;;0.80;0.80;;;;;;;-146.25;100.00;57403.91;5049617;28;20293;-85
2023/06/17 13:40:58;;;;;;;0.80;0.80;;;;;;;-146.25;100.00;57403.91;5047475;28;20219;-84
2023/06/17 13:44:23;;;;;;;0.20;0.20;;;;;;;-146.25;100.00;57403.91;5029516;28;20210;-85
2023/06/17 13:47:49;;;;;;;0.40;0.40;;;;;;;-146.25;100.00;57403.91;5048483;28;20211;-86
2023/06/17 13:51:16;;;;;;;0.38;0.38;;;;;;;-146.25;100.00;57403.91;5036165;28;20681;-86
2023/06/17 13:54:42;;;;;;;0.30;0.30;;;;;;;-146.25;100.00;57403.91;5043582;28;20207;-85
2023/06/17 13:58:08;;;;;;;0.38;0.38;;;;;;;-146.25;100.00;57403.91;5033379;28;20406;-86
2023/06/17 14:01:36;;;;;;;1.60;0.93;;;;;;;-146.25;100.00;57403.91;5032485;28;20314;-87
2023/06/17 14:05:03;;;;;;;0.45;0.45;;;;;;;-146.25;100.00;57403.91;5033151;28;20262;-87
2023/06/17 14:08:30;;;;;;;0.28;0.28;;;;;;;-146.25;100.00;57403.91;5032560;28;20251;-85
2023/06/17 14:11:56;;;;;;;0.40;0.40;;;;;;;-146.25;100.00;57403.91;5033211;28;20215;-84
2023/06/17 14:15:21;;;;;;;0.70;0.70;;;;;;;-146.25;100.00;57403.91;5046199;28;20199;-86
2023/06/17 14:18:47;;;;;;;0.40;0.40;;;;;;;-146.25;100.00;57403.91;5053108;28;20293;-85
2023/06/17 14:22:25;;;;;;;0.50;0.50;;;;;;;-146.25;100.00;57403.91;5052384;28;20211;-85
2023/06/17 14:25:52;;;;;;;1.27;1.02;;;;;;;-146.25;100.00;57403.91;5045673;28;20216;-84
2023/06/17 14:29:18;;;;;;;0.60;0.50;;;;;;;-146.25;100.00;57403.91;5046139;28;20205;-85
2023/06/17 14:32:45;;;;;;;0.30;0.30;;;;;;;-146.25;100.00;57403.91;5040420;28;20225;-85
2023/06/17 14:36:11;;;;;;;1.33;0.50;;;;;;;-146.25;100.00;57403.91;5032163;28;20241;-85
2023/06/17 14:39:37;;;;;;;0.65;0.65;;;;;;;-146.25;100.00;57403.91;5030617;28;20213;-87
2023/06/17 14:43:06;;;;;;;0.60;0.60;;;;;;;-146.25;100.00;57403.91;5032176;28;20206;-86
2023/06/17 14:46:32;;;;;;;0.20;0.20;;;;;;;-146.25;100.00;57403.91;5040234;28;20202;-85
2023/06/17 14:49:57;;;;;;;0.55;0.55;;;;;;;-146.25;100.00;57403.91;5040715;28;20230;-86
2023/06/17 14:53:29;;;;;;;0.73;0.73;;;;;;;-146.25;100.00;57403.91;5051126;28;20239;-84
2023/06/17 14:57:01;;;;;;;0.70;0.70;;;;;;;-146.25;100.00;57403.91;5032873;28;20211;-84
2023/06/17 15:00:28;;;;;;;0.70;0.70;;;;;;;-146.25;100.00;57403.91;5031398;28;20200;-85
2023/06/17 15:03:53;;;;;;;3.90;0.90;;;;;;;-146.25;100.00;57403.91;5031479;28;20208;-83
2023/06/17 15:07:22;;;;;;;1.00;0.80;;;;;;;-146.25;100.00;57403.91;5031449;28;20309;-85
2023/06/17 15:10:50;;;;;;;0.70;0.70;;;;;;;-146.25;100.00;57403.91;5031592;28;20291;-85
2023/06/17 15:14:16;;;;;;;0.90;0.90;;;;;;;-146.25;100.00;57403.91;5030706;28;20238;-85
2023/06/17 15:17:47;;;;;;;1.40;1.02;;;;;;;-146.25;100.00;57403.91;5050099;28;20284;-85
2023/06/17 15:21:15;;;;;;;0.68;0.68;;;;;;;-146.25;100.00;57403.91;5050950;28;20240;-83
2023/06/17 15:24:44;;;;;;;1.25;0.80;;;;;;;-146.25;100.00;57403.91;5051046;28;20353;-86
2023/06/17 15:28:10;;;;;;;1.00;0.80;;;;;;;-146.25;100.00;57403.91;5039510;28;20207;-86
2023/06/17 15:31:36;;;;;;;0.90;0.90;;;;;;;-146.25;100.00;57403.91;5046676;28;20543;-86
2023/06/17 15:35:07;;;;;;;0.90;0.90;;;;;;;-146.25;100.00;57403.91;5050621;28;20235;-85
2023/06/17 15:38:34;;;;;;;0.75;0.75;;;;;;;-146.25;100.00;57403.91;5032718;28;20217;-85